createdAt,value
2023-11-27T08:29:20.647Z,97699.87
2023-11-27T08:30:23.682Z,97714.95
2023-11-27T08:31:25.902Z,97708.85
2023-11-27T08:32:27.947Z,97712.14
2023-11-27T08:33:30.987Z,97710.33
2023-11-27T08:34:36.144Z,97723.16
2023-11-27T08:35:38.617Z,97716.97
2023-11-27T08:36:42.919Z,97720.31
2023-11-27T08:37:45.090Z,97731.44
2023-11-27T08:38:47.731Z,97728.73
2023-11-27T08:39:49.956Z,97731.19
2023-11-27T08:40:52.245Z,97729.33
2023-11-27T08:41:54.998Z,97736.22
2023-11-27T08:42:57.638Z,97731.88
2023-11-27T08:43:59.813Z,97742.16
2023-11-27T08:45:20.595Z,97733.45
2023-11-27T08:46:23.210Z,97734.19
2023-11-27T08:47:26.017Z,97744.50
2023-11-27T08:48:32.239Z,97742.69
2023-11-27T08:49:34.507Z,97752.13
2023-11-27T08:50:37.209Z,97743.48
2023-11-27T08:51:44.760Z,97749.48
2023-11-27T08:52:50.365Z,97744.11
2023-11-27T08:53:53.150Z,97759.66
2023-11-27T08:54:55.504Z,97750.01
2023-11-27T08:57:12.929Z,97721.06
2023-11-27T08:58:15.136Z,97744.81
2023-11-27T08:59:17.699Z,97747.50
2023-11-27T09:00:20.572Z,97758.80
2023-11-27T09:01:23.284Z,97753.55
2023-11-27T09:02:25.956Z,97759.59
2023-11-27T09:03:28.186Z,97765.76
2023-11-27T09:04:31.478Z,97762.11
2023-11-27T09:05:34.220Z,97767.31
2023-11-27T09:06:37.169Z,97768.21
2023-11-27T09:07:39.978Z,97768.21
2023-11-27T09:08:43.556Z,97764.70
2023-11-27T09:09:46.991Z,97755.95
2023-11-27T09:10:50.438Z,97758.48
2023-11-27T09:11:52.712Z,97751.48
2023-11-27T09:12:54.924Z,97766.30
2023-11-27T09:13:57.026Z,97764.48
2023-11-27T09:15:00.353Z,97758.48
2023-11-27T09:16:03.789Z,97759.34
2023-11-27T09:17:06.249Z,97766.23
2023-11-27T09:18:09.174Z,97765.39
2023-11-27T09:19:11.668Z,97755.77
2023-11-27T09:20:14.294Z,97758.32
2023-11-27T09:21:16.553Z,97765.27
2023-11-27T09:22:19.280Z,97767.70
2023-11-27T09:23:21.523Z,97756.45
2023-11-27T09:24:23.788Z,97761.66
2023-11-27T09:25:26.553Z,97771.97
2023-11-27T09:26:29.481Z,97758.00
2023-11-27T09:27:31.966Z,97767.50
2023-11-27T09:28:34.204Z,97767.44
2023-11-27T09:29:36.895Z,97774.45
2023-11-27T09:30:39.868Z,97774.45
2023-11-27T09:31:43.136Z,97765.02
2023-11-27T09:32:46.060Z,97771.06
2023-11-27T09:33:48.698Z,97772.81
2023-11-27T09:34:51.341Z,97766.59
2023-11-27T09:35:53.682Z,97777.91
2023-11-27T09:37:02.834Z,97770.10
2023-11-27T09:38:00.686Z,97775.25
2023-11-27T09:39:02.858Z,97773.38
2023-11-27T09:40:08.149Z,97783.90
2023-11-27T09:41:11.080Z,97764.55
2023-11-27T09:42:13.398Z,97790.57
2023-11-27T09:43:16.246Z,97787.82
2023-11-27T09:44:19.026Z,97773.97
2023-11-27T09:45:22.028Z,97781.86
2023-11-27T09:46:27.016Z,97781.71
2023-11-27T09:47:31.326Z,97785.11
2023-11-27T09:48:37.161Z,97786.69
2023-11-27T09:49:43.089Z,97799.52
2023-11-27T09:50:48.190Z,97797.62
2023-11-27T09:51:57.410Z,97796.71
2023-11-27T09:53:06.663Z,97807.97
2023-11-27T09:54:10.836Z,97794.05
2023-11-27T09:55:15.453Z,97800.11
2023-11-27T09:56:22.121Z,97790.55
2023-11-27T09:57:25.390Z,97794.11
2023-11-27T09:58:28.099Z,97787.16
2023-11-27T09:59:32.225Z,97807.97
2023-11-27T10:00:36.852Z,97808.70
2023-11-27T10:01:41.615Z,97794.84
2023-11-27T10:03:59.021Z,97799.48
2023-11-27T10:05:02.471Z,97802.70
2023-11-27T10:06:04.983Z,97800.11
2023-11-27T10:07:07.459Z,97795.69
2023-11-27T10:08:12.431Z,97812.89
2023-11-27T10:09:15.136Z,97805.08
2023-11-27T10:10:19.611Z,97806.77
2023-11-27T10:11:22.934Z,97814.58
2023-11-27T10:12:26.205Z,97822.39
2023-11-27T10:13:40.866Z,97811.98
2023-11-27T10:14:38.791Z,97820.55
2023-11-27T10:15:41.830Z,97822.39
2023-11-27T10:16:44.353Z,97820.55
2023-11-27T10:17:47.055Z,97820.48
2023-11-27T10:18:52.266Z,97832.66
2023-11-27T10:19:55.338Z,97825.75
2023-11-27T10:20:57.717Z,97834.41
2023-11-27T10:22:00.695Z,97843.91
2023-11-27T10:23:03.089Z,97834.35
2023-11-27T10:24:06.181Z,97843.74
2023-11-27T10:25:08.858Z,97836.78
2023-11-27T10:26:11.979Z,97834.17
2023-11-27T10:27:14.182Z,97832.42
2023-11-27T10:28:19.126Z,97853.25
2023-11-27T10:30:34.993Z,97828.41
2023-11-27T10:31:37.735Z,97846.34
2023-11-27T10:32:39.867Z,97842.95
2023-11-27T10:33:42.522Z,97844.59
2023-11-27T10:34:45.776Z,97841.92
2023-11-27T10:52:24.324Z,97877.65
2023-11-27T10:53:27.574Z,97868.53
2023-11-27T10:54:31.126Z,97870.17
2023-11-27T10:55:36.749Z,97887.48
2023-11-27T10:56:42.001Z,97880.47
2023-11-27T10:57:45.901Z,97883.81
2023-11-27T10:58:51.927Z,97890.66
2023-11-27T10:59:53.390Z,97888.84
2023-11-27T11:00:56.693Z,97877.39
2023-11-27T11:02:00.949Z,97898.09
2023-11-27T11:03:05.897Z,97889.27
2023-11-27T11:05:43.020Z,97889.37
2023-11-27T11:06:48.778Z,97885.56
2023-11-27T11:07:51.355Z,97898.41
2023-11-27T11:08:59.537Z,97889.69
2023-11-27T11:10:01.533Z,97892.18
2023-11-27T11:11:04.756Z,97899.88
2023-11-27T11:12:07.687Z,97897.27
2023-11-27T11:13:13.554Z,97902.48
2023-11-27T11:16:43.337Z,97886.31
2023-11-27T11:17:49.785Z,97907.55
2023-11-27T11:20:28.723Z,97906.03
2023-11-27T11:21:50.503Z,97901.26
2023-11-27T11:23:27.005Z,97914.16
2023-11-27T11:24:35.904Z,97915.80
2023-11-27T11:25:47.850Z,97924.46
2023-11-27T11:27:10.752Z,97916.71
2023-11-27T11:28:25.913Z,97933.19
2023-11-27T11:29:37.010Z,97922.56
2023-11-27T11:30:39.744Z,97932.92
2023-11-27T11:31:43.644Z,97943.34
2023-11-27T11:32:46.010Z,97934.73
2023-11-27T11:33:48.022Z,97930.38
2023-11-27T11:34:53.212Z,97940.00
2023-11-27T11:35:55.606Z,97943.55
2023-11-27T11:36:57.964Z,97936.75
2023-11-27T11:38:00.465Z,97930.63
2023-11-27T11:39:07.648Z,97934.99
2023-11-27T11:41:24.125Z,97942.48
2023-11-27T11:42:27.957Z,97940.63
2023-11-27T11:43:33.968Z,97940.69
2023-11-27T11:44:37.021Z,97939.84
2023-11-27T11:45:42.227Z,97945.05
2023-11-27T11:46:44.641Z,97957.27
2023-11-27T11:47:59.640Z,97940.86
2023-11-27T11:49:03.644Z,97940.91
2023-11-27T11:50:28.964Z,97951.44
2023-11-27T11:51:32.022Z,97955.00
2023-11-27T11:52:35.435Z,97952.53
2023-11-27T11:53:38.140Z,97944.89
2023-11-27T11:54:40.718Z,97960.56
2023-11-27T11:55:43.531Z,97954.56
2023-11-27T11:56:47.272Z,97957.22
2023-11-27T11:57:49.653Z,97963.38
2023-11-27T11:58:57.101Z,97972.97
2023-11-27T12:00:01.116Z,97974.83
2023-11-27T12:01:05.116Z,97967.93
2023-11-27T12:02:11.931Z,97967.13
2023-11-27T12:04:26.378Z,97980.59
2023-11-27T12:05:28.775Z,97969.79
2023-11-27T12:06:31.403Z,97966.39
2023-11-27T12:07:33.712Z,97968.03
2023-11-27T12:08:38.078Z,97984.50
2023-11-27T12:09:40.841Z,97992.30
2023-11-27T12:10:43.396Z,97987.05
2023-11-27T12:11:47.683Z,97983.55
2023-11-27T12:12:49.983Z,97981.73
2023-11-27T12:13:52.031Z,97988.64
2023-11-27T12:14:54.274Z,97992.94
2023-11-27T12:15:57.027Z,98010.22
2023-11-27T12:16:59.861Z,97999.00
2023-11-27T12:18:02.364Z,97998.15
2023-11-27T12:19:04.917Z,98002.42
2023-11-27T12:20:08.698Z,98014.47
2023-11-27T12:21:12.701Z,98006.72
2023-11-27T12:22:17.144Z,97998.91
2023-11-27T12:23:21.068Z,98018.83
2023-11-27T12:24:23.845Z,98008.56
2023-11-27T12:25:27.138Z,98014.66
2023-11-27T12:26:30.772Z,98015.56
2023-11-27T12:27:37.927Z,98023.42
2023-11-27T12:28:42.255Z,98019.07
2023-11-27T12:29:50.626Z,98015.67
2023-11-27T12:30:54.272Z,98020.92
2023-11-27T12:31:57.341Z,98026.19
2023-11-27T12:33:00.264Z,98024.48
2023-11-27T12:34:02.354Z,98017.48
2023-11-27T12:35:05.447Z,98026.19
2023-11-27T12:36:09.273Z,98028.84
2023-11-27T12:37:12.099Z,98034.99
2023-11-27T12:38:16.802Z,98038.50
2023-11-27T12:39:19.379Z,98038.50
2023-11-27T12:40:22.067Z,98022.89
2023-11-27T12:41:31.852Z,98041.90
2023-11-27T12:42:37.064Z,98044.50
2023-11-27T12:43:40.351Z,98045.41
2023-11-27T12:44:46.221Z,98049.60
2023-11-27T12:45:48.753Z,98037.55
2023-11-27T12:46:52.733Z,98033.19
2023-11-27T12:47:58.837Z,98044.50
2023-11-27T12:49:05.684Z,98054.95
2023-11-27T12:50:09.507Z,98055.94
2023-11-27T12:51:12.219Z,98047.23
2023-11-27T12:52:15.842Z,98045.53
2023-11-27T12:53:18.631Z,98057.64
2023-11-27T12:54:22.978Z,98049.84
2023-11-27T12:55:28.441Z,98044.50
2023-11-27T12:56:31.648Z,98049.70
2023-11-27T12:57:34.189Z,98042.80
2023-11-27T12:58:36.342Z,98048.05
2023-11-27T12:59:41.350Z,98062.72
2023-11-27T13:00:45.149Z,98064.47
2023-11-27T13:01:48.039Z,98067.06
2023-11-27T13:02:50.569Z,98067.92
2023-11-27T13:03:53.821Z,98070.52
2023-11-27T13:04:56.344Z,98065.31
2023-11-27T13:05:58.481Z,98051.41
2023-11-27T13:07:02.502Z,98053.91
2023-11-27T13:08:05.347Z,98067.77
2023-11-27T13:09:07.566Z,98064.31
2023-11-27T13:10:10.454Z,98075.63
2023-11-27T13:11:13.395Z,98074.82
2023-11-27T13:12:17.351Z,98073.97
2023-11-27T13:13:21.745Z,98080.93
2023-11-27T13:14:24.621Z,98076.62
2023-11-27T13:15:26.696Z,98075.72
2023-11-27T13:16:29.513Z,98097.44
2023-11-27T13:17:32.278Z,98092.23
2023-11-27T13:18:34.799Z,98091.47
2023-11-27T13:19:39.485Z,98088.78
2023-11-27T13:20:43.750Z,98090.53
2023-11-27T13:21:46.280Z,98089.69
2023-11-27T13:22:49.558Z,98099.27
2023-11-27T13:23:52.193Z,98100.22
2023-11-27T13:24:55.195Z,98109.73
2023-11-27T13:25:57.389Z,98110.63
2023-11-27T13:26:59.706Z,98101.13
2023-11-27T13:28:03.868Z,98109.78
2023-11-27T13:29:06.399Z,98108.08
2023-11-27T13:30:11.124Z,98114.18
2023-11-27T13:31:13.974Z,98115.93
2023-11-27T13:32:20.219Z,98114.18
2023-11-27T13:33:23.637Z,98109.02
2023-11-27T13:34:26.302Z,98101.27
2023-11-27T13:35:29.118Z,98121.19
2023-11-27T13:36:31.763Z,98127.28
2023-11-27T13:37:34.144Z,98121.23
2023-11-27T13:38:36.836Z,98110.87
2023-11-27T13:39:39.772Z,98122.18
2023-11-27T13:40:44.396Z,98117.87
2023-11-27T13:41:46.922Z,98121.38
2023-11-27T13:42:50.219Z,98121.45
2023-11-27T13:43:53.192Z,98125.81
2023-11-27T13:44:55.586Z,98137.11
2023-11-27T13:45:57.818Z,98113.70
2023-11-27T13:47:00.367Z,98127.61
2023-11-27T13:48:03.561Z,98133.66
2023-11-27T13:49:07.031Z,98133.70
2023-11-27T13:50:10.731Z,98148.41
2023-11-27T13:51:12.664Z,98137.20
2023-11-27T13:52:19.152Z,98136.36
2023-11-27T13:53:23.763Z,98131.20
2023-11-27T13:54:26.527Z,98132.09
2023-11-27T13:55:29.646Z,98138.16
2023-11-27T13:56:32.099Z,98133.84
2023-11-27T13:57:34.412Z,98140.84
2023-11-27T13:58:37.816Z,98151.25
2023-11-27T13:59:40.052Z,98153.95
2023-11-27T14:00:43.101Z,98145.38
2023-11-27T14:01:45.273Z,98141.02
2023-11-27T14:02:47.620Z,98149.72
2023-11-27T14:03:50.787Z,98146.31
2023-11-27T14:04:52.823Z,98138.52
2023-11-27T14:05:56.718Z,98152.41
2023-11-27T14:06:59.461Z,98146.41
2023-11-27T14:08:02.958Z,98157.75
2023-11-27T14:09:05.762Z,98146.50
2023-11-27T14:10:08.654Z,98152.59
2023-11-27T14:11:21.681Z,98146.59
2023-11-27T14:12:14.961Z,98155.24
2023-11-27T14:13:17.053Z,98154.39
2023-11-27T14:30:30.974Z,98184.19
2023-11-27T14:31:33.937Z,98186.28
2023-11-27T14:32:36.580Z,98183.63
2023-11-27T14:33:41.036Z,98192.24
2023-11-27T14:34:44.123Z,98182.70
2023-11-27T14:35:48.735Z,98180.09
2023-11-27T14:38:01.969Z,98198.85
2023-11-27T14:39:04.403Z,98199.23
2023-11-27T14:40:10.165Z,98198.38
2023-11-27T14:41:12.898Z,98209.63
2023-11-27T14:42:15.032Z,98208.78
2023-11-27T14:43:18.764Z,98200.08
2023-11-27T14:44:23.906Z,98215.67
2023-11-27T14:45:26.245Z,98213.98
2023-11-27T14:46:28.703Z,98210.48
2023-11-27T14:47:30.671Z,98210.48
2023-11-27T14:48:34.775Z,98209.55
2023-11-27T14:49:37.233Z,98217.27
2023-11-27T14:50:41.680Z,98205.23
2023-11-27T14:51:44.751Z,98224.33
2023-11-27T14:52:46.888Z,98213.98
2023-11-27T14:53:50.198Z,98222.67
2023-11-27T14:54:52.434Z,98217.55
2023-11-27T14:55:55.292Z,98222.80
2023-11-27T14:56:57.578Z,98214.10
2023-11-27T14:57:59.862Z,98214.95
2023-11-27T14:59:02.400Z,98221.91
2023-11-27T15:00:06.378Z,98221.05
2023-11-27T15:01:09.608Z,98221.98
2023-11-27T15:02:12.131Z,98231.53
2023-11-27T15:03:15.860Z,98230.75
2023-11-27T15:04:18.279Z,98230.75
2023-11-27T15:05:20.722Z,98237.70
2023-11-27T15:06:23.286Z,98240.34
2023-11-27T15:07:25.594Z,98239.44
2023-11-27T15:08:27.769Z,98242.89
2023-11-27T15:09:30.604Z,98245.53
2023-11-27T15:10:33.044Z,98257.52
2023-11-27T15:11:35.213Z,98250.62
2023-11-27T15:12:38.496Z,98254.14
2023-11-27T15:13:40.916Z,98250.62
2023-11-27T15:14:42.935Z,98265.31
2023-11-27T15:15:45.980Z,98270.55
2023-11-27T15:16:50.337Z,98266.21
2023-11-27T15:17:53.219Z,98269.73
2023-11-27T15:18:56.710Z,98268.03
2023-11-27T15:19:59.511Z,98270.55
2023-11-27T15:21:01.971Z,98279.20
2023-11-27T15:22:04.367Z,98268.81
2023-11-27T15:23:06.516Z,98267.91
2023-11-27T15:24:09.421Z,98277.53
2023-11-27T15:25:11.612Z,98285.33
2023-11-27T15:26:15.108Z,98287.11
2023-11-27T15:27:17.143Z,98279.31
2023-11-27T15:28:21.047Z,98281.92
2023-11-27T15:29:23.851Z,98277.61
2023-11-27T15:30:26.820Z,98283.66
2023-11-27T15:31:29.269Z,98293.20
2023-11-27T15:32:31.594Z,98262.91
2023-11-27T15:33:33.928Z,98290.61
2023-11-27T15:34:36.809Z,98294.09
2023-11-27T15:35:39.331Z,98281.14
2023-11-27T15:36:42.374Z,98294.17
2023-11-27T15:37:44.807Z,98287.27
2023-11-27T15:38:47.009Z,98298.56
2023-11-27T15:39:49.881Z,98287.27
2023-11-27T15:40:52.867Z,98313.26
2023-11-27T15:41:55.693Z,98295.97
2023-11-27T15:42:57.907Z,98302.05
2023-11-27T15:44:00.709Z,98296.86
2023-11-27T15:45:03.686Z,98306.36
2023-11-27T15:46:09.964Z,98309.84
2023-11-27T15:47:12.403Z,98301.28
2023-11-27T15:48:14.724Z,98302.20
2023-11-27T15:49:17.051Z,98307.41
2023-11-27T15:50:19.949Z,98306.55
2023-11-27T15:51:22.950Z,98300.50
2023-11-27T15:52:24.957Z,98308.30
2023-11-27T15:53:27.533Z,98312.59
2023-11-27T15:54:29.994Z,98318.64
2023-11-27T15:55:32.406Z,98314.34
2023-11-27T15:56:35.434Z,98317.80
2023-11-27T15:57:37.540Z,98322.14
2023-11-27T15:58:40.963Z,98314.27
2023-11-27T15:59:43.537Z,98318.64
2023-11-27T16:00:46.041Z,98321.25
2023-11-27T16:01:48.801Z,98322.03
2023-11-27T16:02:51.224Z,98329.78
2023-11-27T16:03:53.396Z,98320.24
2023-11-27T16:04:56.090Z,98333.20
2023-11-27T16:05:58.729Z,98332.34
2023-11-27T16:07:01.011Z,98320.24
2023-11-27T16:08:04.428Z,98330.59
2023-11-27T16:09:07.256Z,98338.36
2023-11-27T16:10:10.582Z,98347.05
2023-11-27T16:11:13.258Z,98339.25
2023-11-27T16:12:15.849Z,98340.14
2023-11-27T16:13:18.140Z,98346.23
2023-11-27T16:14:20.369Z,98350.53
2023-11-27T16:15:22.573Z,98339.28
2023-11-27T16:16:25.522Z,98342.77
2023-11-27T16:17:28.146Z,98343.66
2023-11-27T16:18:31.822Z,98342.81
2023-11-27T16:19:33.937Z,98341.92
2023-11-27T16:20:36.870Z,98355.77
2023-11-27T16:21:39.131Z,98349.72
2023-11-27T16:22:41.770Z,98354.91
2023-11-27T16:23:44.207Z,98348.02
2023-11-27T16:24:46.354Z,98346.27
2023-11-27T16:25:49.063Z,98350.61
2023-11-27T16:26:52.303Z,98362.75
2023-11-27T16:27:54.542Z,98361.89
2023-11-27T16:28:56.694Z,98353.31
2023-11-27T16:29:59.017Z,98357.70
2023-11-27T16:31:01.853Z,98361.15
2023-11-27T16:32:04.820Z,98361.11
2023-11-27T16:33:08.144Z,98368.02
2023-11-27T16:34:10.771Z,98367.20
2023-11-27T16:35:14.283Z,98362.89
2023-11-27T16:36:17.661Z,98371.55
2023-11-27T16:37:19.883Z,98375.89
2023-11-27T16:38:22.282Z,98365.53
2023-11-27T16:39:24.952Z,98363.78
2023-11-27T16:40:27.786Z,98367.27
2023-11-27T16:41:30.505Z,98378.56
2023-11-27T16:42:32.636Z,98367.34
2023-11-27T16:43:35.326Z,98375.14
2023-11-27T16:44:37.360Z,98371.69
2023-11-27T16:45:39.731Z,98371.77
2023-11-27T16:46:42.051Z,98382.19
2023-11-27T16:47:46.880Z,98378.81
2023-11-27T16:48:49.669Z,98377.10
2023-11-27T16:49:52.208Z,98368.42
2023-11-27T16:50:55.810Z,98383.08
2023-11-27T16:51:58.552Z,98382.30
2023-11-27T16:53:01.354Z,98371.94
2023-11-27T16:54:04.117Z,98376.28
2023-11-27T16:55:08.133Z,98376.36
2023-11-27T16:56:11.429Z,98385.04
2023-11-27T16:57:14.278Z,98381.62
2023-11-27T16:58:16.221Z,98399.80
2023-11-27T16:59:18.292Z,98398.98
2023-11-27T17:00:22.476Z,98393.89
2023-11-27T17:01:24.802Z,98392.19
2023-11-27T17:02:27.152Z,98392.19
2023-11-27T17:03:30.064Z,98380.05
2023-11-27T17:04:32.579Z,98395.67
2023-11-27T17:05:35.334Z,98393.97
2023-11-27T17:06:37.646Z,98402.65
2023-11-27T17:07:40.548Z,98392.33
2023-11-27T17:08:43.066Z,98397.52
2023-11-27T17:09:45.146Z,98401.01
2023-11-27T17:10:47.746Z,98406.20
2023-11-27T17:11:49.780Z,98407.09
2023-11-27T17:12:51.815Z,98404.49
2023-11-27T17:13:53.965Z,98409.69
2023-11-27T17:14:56.547Z,98401.86
2023-11-27T17:15:59.025Z,98418.30
2023-11-27T17:17:02.204Z,98407.91
2023-11-27T17:18:05.117Z,98413.10
2023-11-27T17:19:07.286Z,98412.22
2023-11-27T17:20:12.764Z,98420.00
2023-11-27T17:21:17.149Z,98424.31
2023-11-27T17:22:19.949Z,98411.33
2023-11-27T17:23:23.198Z,98425.20
2023-11-27T17:24:25.474Z,98418.27
2023-11-27T17:25:28.280Z,98416.52
2023-11-27T17:26:32.545Z,98419.94
2023-11-27T17:27:35.455Z,98425.13
2023-11-27T17:28:37.663Z,98436.38
2023-11-27T17:29:39.804Z,98428.61
2023-11-27T17:30:42.214Z,98441.56
2023-11-27T17:31:44.852Z,98451.03
2023-11-27T17:32:47.560Z,98459.71
2023-11-27T17:33:49.980Z,98446.77
2023-11-27T17:34:52.501Z,98442.42
2023-11-27T17:35:55.082Z,98440.75
2023-11-27T17:36:57.165Z,98449.45
2023-11-27T17:38:00.530Z,98458.13
2023-11-27T17:39:02.748Z,98468.52
2023-11-27T17:40:07.550Z,98453.86
2023-11-27T17:41:10.238Z,98455.61
2023-11-27T17:42:12.455Z,98450.45
2023-11-27T17:43:15.151Z,98454.78
2023-11-27T17:44:17.287Z,98457.45
2023-11-27T17:45:19.819Z,98465.27
2023-11-27T17:46:22.893Z,98463.56
2023-11-27T17:47:26.073Z,98475.72
2023-11-27T17:48:29.330Z,98484.36
2023-11-27T17:49:31.533Z,98483.54
2023-11-27T17:50:33.904Z,98477.48
2023-11-27T17:51:37.008Z,98490.50
2023-11-27T17:53:51.488Z,98480.72
2023-11-27T17:54:53.682Z,98484.52
2023-11-27T17:55:58.059Z,98483.63
2023-11-27T17:57:00.774Z,98501.80
2023-11-27T17:58:03.825Z,98497.47
2023-11-27T17:59:05.991Z,98507.85
2023-11-27T18:00:09.803Z,98507.00
2023-11-27T18:01:14.870Z,98512.19
2023-11-27T18:02:17.760Z,98512.19
2023-11-27T18:03:20.005Z,98509.53
2023-11-27T18:04:22.292Z,98514.73
2023-11-27T18:05:24.729Z,98505.23
2023-11-27T18:06:27.180Z,98526.84
2023-11-27T18:07:29.609Z,98514.75
2023-11-27T18:08:35.569Z,98516.47
2023-11-27T18:09:37.782Z,98512.16
2023-11-27T18:10:40.943Z,98512.19
2023-11-27T18:11:43.981Z,98508.70
2023-11-27T18:12:46.848Z,98514.81
2023-11-27T18:13:48.908Z,98523.46
2023-11-27T18:14:51.481Z,98519.09
2023-11-27T18:15:53.648Z,98527.77
2023-11-27T18:16:56.885Z,98517.38
2023-11-27T18:18:00.422Z,98532.96
2023-11-27T18:19:07.277Z,98522.58
2023-11-27T18:20:11.333Z,98520.83
2023-11-27T18:21:13.543Z,98527.77
2023-11-27T18:22:15.921Z,98519.09
2023-11-27T18:23:18.931Z,98526.88
2023-11-27T18:24:21.433Z,98527.77
2023-11-27T18:25:24.009Z,98528.66
2023-11-27T18:26:27.649Z,98543.34
2023-11-27T18:27:30.352Z,98523.46
2023-11-27T18:28:33.004Z,98539.92
2023-11-27T18:29:35.752Z,98532.13
2023-11-27T18:30:38.395Z,98530.39
2023-11-27T18:31:40.652Z,98543.34
2023-11-27T18:32:44.206Z,98526.94
2023-11-27T18:33:47.171Z,98539.92
2023-11-27T18:34:50.323Z,98531.25
2023-11-27T18:35:53.055Z,98545.97
2023-11-27T18:36:55.723Z,98538.15
2023-11-27T18:37:57.843Z,98544.23
2023-11-27T18:39:01.113Z,98543.34
2023-11-27T18:41:13.933Z,98551.78
2023-11-27T18:42:16.036Z,98550.30
2023-11-27T18:43:18.117Z,98551.13
2023-11-27T18:44:20.632Z,98553.73
2023-11-27T18:45:23.374Z,98552.02
2023-11-27T18:46:25.923Z,98555.44
2023-11-27T18:47:28.414Z,98558.03
2023-11-27T18:48:31.740Z,98553.67
2023-11-27T18:50:45.157Z,98556.81
2023-11-27T18:51:47.832Z,98564.88
2023-11-27T18:52:50.352Z,98558.80
2023-11-27T18:53:52.827Z,98555.32
2023-11-27T18:54:55.957Z,98561.37
2023-11-27T18:55:58.227Z,98562.22
2023-11-27T18:57:01.450Z,98556.17
2023-11-27T18:58:04.034Z,98554.47
2023-11-27T18:59:06.505Z,98559.66
2023-11-27T19:00:11.362Z,98556.20
2023-11-27T19:01:14.058Z,98569.19
2023-11-27T19:02:16.725Z,98557.09
2023-11-27T19:03:20.166Z,98565.73
2023-11-27T19:04:23.863Z,98560.52
2023-11-27T19:05:26.064Z,98560.52
2023-11-27T19:06:29.477Z,98553.61
2023-11-27T19:07:31.614Z,98555.34
2023-11-27T19:08:33.964Z,98563.99
2023-11-27T19:09:36.877Z,98558.80
2023-11-27T19:10:40.468Z,98557.09
2023-11-27T19:11:43.928Z,98557.09
2023-11-27T19:12:46.673Z,98565.73
2023-11-27T19:13:49.022Z,98551.05
2023-11-27T19:14:53.915Z,98564.88
2023-11-27T19:15:55.871Z,98560.58
2023-11-27T19:16:59.606Z,98560.58
2023-11-27T19:18:02.472Z,98565.77
2023-11-27T19:19:05.804Z,98564.05
2023-11-27T19:20:09.825Z,98560.58
2023-11-27T19:21:12.144Z,98568.36
2023-11-27T19:22:15.194Z,98565.77
2023-11-27T19:23:17.772Z,98577.89
2023-11-27T19:24:20.329Z,98570.95
2023-11-27T19:25:22.919Z,98571.81
2023-11-27T19:26:26.070Z,98566.63
2023-11-27T19:27:28.550Z,98576.16
2023-11-27T19:28:31.215Z,98579.58
2023-11-27T19:29:33.280Z,98588.25
2023-11-27T19:30:35.456Z,98576.16
2023-11-27T19:31:38.198Z,98572.67
2023-11-27T19:32:41.076Z,98580.48
2023-11-27T19:33:44.202Z,98594.33
2023-11-27T19:34:46.446Z,98588.25
2023-11-27T19:35:50.919Z,98586.53
2023-11-27T19:36:54.153Z,98595.20
2023-11-27T19:37:58.576Z,98588.30
2023-11-27T19:39:01.541Z,98596.92
2023-11-27T19:40:04.767Z,98592.59
2023-11-27T19:41:10.624Z,98595.16
2023-11-27T19:42:13.144Z,98590.81
2023-11-27T19:43:15.882Z,98598.60
2023-11-27T19:45:30.536Z,98594.88
2023-11-27T19:46:33.965Z,98603.83
2023-11-27T19:47:37.297Z,98600.34
2023-11-27T19:48:39.653Z,98598.66
2023-11-27T19:49:42.185Z,98603.00
2023-11-27T19:50:45.935Z,98608.22
2023-11-27T19:51:48.663Z,98608.22
2023-11-27T19:52:52.195Z,98608.22
2023-11-27T19:53:54.414Z,98612.55
2023-11-27T19:54:56.516Z,98607.36
2023-11-27T19:55:59.167Z,98612.55
2023-11-27T19:57:02.521Z,98614.27
2023-11-27T19:58:05.182Z,98612.55
2023-11-27T19:59:07.796Z,98609.93
2023-11-27T20:00:11.979Z,98616.03
2023-11-27T20:01:14.685Z,98607.42
2023-11-27T20:02:17.204Z,98616.13
2023-11-27T20:03:20.858Z,98608.36
2023-11-27T20:04:23.012Z,98605.80
2023-11-27T20:05:26.917Z,98623.08
2023-11-27T20:06:29.787Z,98618.78
2023-11-27T20:07:32.916Z,98622.23
2023-11-27T20:08:35.173Z,98626.56
2023-11-27T20:09:37.823Z,98632.61
2023-11-27T20:10:43.880Z,98629.16
2023-11-27T20:11:46.213Z,98628.30
2023-11-27T20:12:48.962Z,98624.00
2023-11-27T20:13:52.351Z,98625.70
2023-11-27T20:14:55.056Z,98638.72
2023-11-27T20:15:57.254Z,98630.09
2023-11-27T20:16:59.910Z,98628.39
2023-11-27T20:18:02.560Z,98635.34
2023-11-27T20:19:05.070Z,98642.30
2023-11-27T20:20:09.439Z,98640.56
2023-11-27T20:21:12.784Z,98632.00
2023-11-27T20:22:15.300Z,98635.48
2023-11-27T20:23:18.519Z,98647.62
2023-11-27T20:24:21.867Z,98646.77
2023-11-27T20:25:24.130Z,98640.73
2023-11-27T20:26:27.374Z,98641.61
2023-11-27T20:27:30.235Z,98640.75
2023-11-27T20:28:33.171Z,98645.97
2023-11-27T20:29:35.292Z,98640.78
2023-11-27T20:30:37.557Z,98649.45
2023-11-27T20:31:39.984Z,98635.64
2023-11-27T20:32:43.938Z,98641.72
2023-11-27T20:33:46.493Z,98636.52
2023-11-27T20:34:48.591Z,98643.45
2023-11-27T20:35:51.957Z,98645.27
2023-11-27T20:36:54.630Z,98640.97
2023-11-27T20:37:57.846Z,98632.35
2023-11-27T20:39:01.407Z,98644.49
2023-11-27T20:40:04.807Z,98643.64
2023-11-27T20:41:07.652Z,98643.64
2023-11-27T20:42:10.637Z,98647.97
2023-11-27T20:43:13.097Z,98648.84
2023-11-27T20:44:15.743Z,98647.97
2023-11-27T20:45:17.804Z,98647.97
2023-11-27T20:46:20.364Z,98650.54
2023-11-27T20:47:23.156Z,98653.11
2023-11-27T20:48:26.019Z,98653.97
2023-11-27T20:49:28.145Z,98652.23
2023-11-27T20:50:31.332Z,98659.16
2023-11-27T20:51:33.920Z,98653.11
2023-11-27T20:52:37.419Z,98653.98
2023-11-27T20:53:39.464Z,98658.34
2023-11-27T20:54:41.397Z,98652.30
2023-11-27T20:55:43.633Z,98660.97
2023-11-27T20:56:45.853Z,98665.30
2023-11-27T20:57:48.037Z,98661.88
2023-11-27T20:58:50.264Z,98674.84
2023-11-27T20:59:53.092Z,98652.37
2023-11-27T21:00:55.572Z,98668.82
2023-11-27T21:01:58.661Z,98656.77
2023-11-27T21:03:01.888Z,98659.41
2023-11-27T21:04:04.706Z,98660.28
2023-11-27T21:05:07.367Z,98662.91
2023-11-27T21:06:10.183Z,98653.44
2023-11-27T21:07:12.665Z,98666.42
2023-11-27T21:08:15.188Z,98657.81
2023-11-27T21:09:18.230Z,98664.77
2023-11-27T21:10:21.475Z,98674.31
2023-11-27T21:11:26.665Z,98661.37
2023-11-27T21:12:32.257Z,98672.63
2023-11-27T21:13:37.493Z,98679.55
2023-11-27T21:14:45.781Z,98677.83
2023-11-27T21:15:49.680Z,98682.19
2023-11-27T21:16:57.167Z,98688.25
2023-11-27T21:18:03.854Z,98682.20
2023-11-27T21:19:09.346Z,98683.06
2023-11-27T21:20:15.401Z,98688.25
2023-11-27T21:21:18.670Z,98696.91
2023-11-27T21:22:25.201Z,98692.55
2023-11-27T21:23:30.430Z,98695.15
2023-11-27T21:24:35.137Z,98695.15
2023-11-27T21:25:43.095Z,98698.58
2023-11-27T21:26:46.349Z,98696.84
2023-11-27T21:27:50.485Z,98706.34
2023-11-27T21:28:54.762Z,98694.23
2023-11-27T21:30:01.380Z,98701.98
2023-11-27T21:31:06.231Z,98700.25
2023-11-27T21:32:11.283Z,98698.45
2023-11-27T21:33:20.838Z,98697.59
2023-11-27T21:34:23.974Z,98707.07
2023-11-27T21:35:29.376Z,98712.26
2023-11-27T21:36:32.853Z,98702.73
2023-11-27T21:37:38.669Z,98706.19
2023-11-27T21:38:45.363Z,98707.07
2023-11-27T21:39:50.689Z,98706.19
2023-11-27T21:40:55.855Z,98706.19
2023-11-27T21:42:02.733Z,98714.85
2023-11-27T21:43:14.968Z,98713.12
2023-11-27T21:44:18.076Z,98709.64